Time;durP1;ratioP1;P1;durP2;ratioP2;P2;SDS_P1;SDS_P2;PMS_P1;PMS_P2;Temp;Humidity;BMP_temperature;BMP_pressure;BME280_temperature;BME280_humidity;BME280_pressure;Samples;Min_cycle;Max_cycle;Signal;HPM_P1;HPM_P2
2023/12/27 00:00:29;;;;;;;2.50;1.73;;;;;;;7.92;nan;100166.94;4953054;28;20204;-85
2023/12/27 00:02:57;;;;;;;3.10;2.00;;;;;;;7.86;nan;100177.66;4960363;28;20716;-86
2023/12/27 00:05:23;;;;;;;5.28;2.05;;;;;;;7.79;nan;100171.00;4957955;28;20193;-88
2023/12/27 00:07:48;;;;;;;2.97;1.60;;;;;;;7.65;nan;100169.81;4957229;28;20218;-89
2023/12/27 00:10:14;;;;;;;4.70;2.30;;;;;;;7.54;nan;100161.59;4956692;28;20201;-87
2023/12/27 00:12:39;;;;;;;2.50;2.10;;;;;;;7.43;nan;100164.66;4956958;28;20727;-85
2023/12/27 00:15:05;;;;;;;2.90;2.10;;;;;;;7.39;nan;100160.44;4958369;28;20828;-89
2023/12/27 00:17:30;;;;;;;3.60;1.80;;;;;;;7.37;nan;100164.03;4971302;28;20251;-85
2023/12/27 00:19:56;;;;;;;4.60;2.13;;;;;;;7.36;nan;100170.19;4955216;28;20525;-84
2023/12/27 00:22:21;;;;;;;6.73;2.07;;;;;;;7.37;nan;100170.13;4958065;28;20307;-83
2023/12/27 00:24:47;;;;;;;2.00;1.40;;;;;;;7.38;nan;100165.75;4954601;28;20204;-88
2023/12/27 00:27:12;;;;;;;4.87;2.10;;;;;;;7.39;nan;100168.28;4956848;28;20203;-84
2023/12/27 00:29:37;;;;;;;2.70;2.07;;;;;;;7.39;nan;100168.28;4951888;28;20211;-85
2023/12/27 00:32:08;;;;;;;5.83;2.10;;;;;;;7.40;nan;100156.94;4964977;28;20219;-87
2023/12/27 00:34:34;;;;;;;5.80;2.60;;;;;;;7.37;nan;100157.06;4983050;28;20227;-85
2023/12/27 00:37:00;;;;;;;3.13;1.50;;;;;;;7.37;nan;100145.75;4982825;28;20206;-83
2023/12/27 00:39:26;;;;;;;6.60;1.97;;;;;;;7.36;nan;100150.13;4958968;28;20203;-88
2023/12/27 00:41:52;;;;;;;2.40;2.20;;;;;;;7.37;nan;100156.19;4973917;28;20575;-86
2023/12/27 00:44:17;;;;;;;4.32;1.50;;;;;;;7.38;nan;100163.16;4977624;28;20553;-87
2023/12/27 00:46:43;;;;;;;2.27;1.80;;;;;;;7.38;nan;100152.69;4962021;28;20565;-86
2023/12/27 00:49:08;;;;;;;3.07;1.67;;;;;;;7.33;nan;100152.88;4980141;28;20224;-86
2023/12/27 00:51:34;;;;;;;1.97;1.67;;;;;;;7.30;nan;100146.00;4961201;28;20211;-86
2023/12/27 00:54:02;;;;;;;3.70;2.33;;;;;;;7.30;nan;100146.00;4979348;28;20191;-86
2023/12/27 00:56:29;;;;;;;3.17;1.40;;;;;;;7.26;nan;100151.41;4980113;28;21327;-85
2023/12/27 00:58:55;;;;;;;1.80;1.70;;;;;;;7.26;nan;100159.25;4972549;28;20231;-86
2023/12/27 01:01:20;;;;;;;1.43;1.20;;;;;;;7.29;nan;100161.75;4984302;28;20207;-85
2023/12/27 01:03:47;;;;;;;1.50;1.30;;;;;;;7.29;nan;100152.16;4981310;28;20255;-87
2023/12/27 01:06:12;;;;;;;3.15;1.50;;;;;;;7.26;nan;100151.41;4980429;28;20458;-86
2023/12/27 01:08:38;;;;;;;1.97;1.77;;;;;;;7.20;nan;100155.13;4978855;28;20799;-82
2023/12/27 01:11:04;;;;;;;1.73;1.47;;;;;;;7.16;nan;100156.19;4980952;28;20267;-87
2023/12/27 01:13:30;;;;;;;2.90;1.33;;;;;;;7.16;nan;100164.03;4977165;28;20446;-86
2023/12/27 01:15:58;;;;;;;1.43;1.33;;;;;;;7.13;nan;100169.38;4957138;28;20206;-86
2023/12/27 01:18:24;;;;;;;4.80;2.50;;;;;;;7.09;nan;100159.94;4973085;28;20200;-86
2023/12/27 01:20:49;;;;;;;4.40;2.03;;;;;;;7.06;nan;100160.91;4955857;28;20235;-86
2023/12/27 01:23:14;;;;;;;4.37;1.83;;;;;;;7.02;nan;100153.25;4961158;28;20235;-84
2023/12/27 01:25:40;;;;;;;2.53;1.60;;;;;;;6.97;nan;100155.22;4959925;28;20561;-83
2023/12/27 01:28:05;;;;;;;7.63;2.17;;;;;;;6.94;nan;100157.94;4960041;28;20203;-86
2023/12/27 01:30:30;;;;;;;1.93;1.70;;;;;;;6.92;nan;100154.56;4959976;28;20203;-88
2023/12/27 01:33:03;;;;;;;3.28;2.03;;;;;;;6.90;nan;100153.78;4971234;28;20256;-86
2023/12/27 01:35:29;;;;;;;4.47;1.70;;;;;;;6.89;nan;100149.47;4954201;28;20192;-87
2023/12/27 01:37:54;;;;;;;2.57;2.07;;;;;;;6.86;nan;100147.81;4973184;28;20193;-87
2023/12/27 01:40:21;;;;;;;2.88;1.70;;;;;;;6.84;nan;100150.47;4960093;28;20617;-86
2023/12/27 01:42:46;;;;;;;3.13;1.80;;;;;;;6.85;nan;100152.19;4956638;28;20728;-85
2023/12/27 01:45:12;;;;;;;1.97;1.77;;;;;;;6.87;nan;100159.97;4956715;28;20216;-88
2023/12/27 01:47:38;;;;;;;2.13;1.67;;;;;;;6.86;nan;100156.50;4954997;28;20197;-83
2023/12/27 01:50:09;;;;;;;2.27;1.30;;;;;;;6.86;nan;100147.81;4954122;28;20546;-86
2023/12/27 01:52:39;;;;;;;1.50;1.40;;;;;;;6.85;nan;100146.94;4956765;28;20686;-85
2023/12/27 01:55:06;;;;;;;2.85;1.20;;;;;;;6.80;nan;100143.66;4955770;28;20204;-85
2023/12/27 01:57:38;;;;;;;2.17;1.23;;;;;;;6.72;nan;100130.06;4952628;28;20226;-85
2023/12/27 02:00:06;;;;;;;3.30;2.25;;;;;;;6.69;nan;100124.97;4952830;28;20695;-86
2023/12/27 02:02:39;;;;;;;3.28;1.75;;;;;;;6.65;nan;100128.63;4954276;28;20216;-85
2023/12/27 02:05:05;;;;;;;1.73;1.38;;;;;;;6.64;nan;100139.97;4955897;28;20335;-86
2023/12/27 02:07:35;;;;;;;2.53;2.22;;;;;;;6.62;nan;100134.81;4957026;28;20211;-85
2023/12/27 02:10:02;;;;;;;2.72;1.65;;;;;;;6.62;nan;100140.03;4954650;28;20212;-83
2023/12/27 02:12:30;;;;;;;5.45;2.95;;;;;;;6.59;nan;100134.94;4958338;28;20200;-86
2023/12/27 02:14:57;;;;;;;3.78;1.83;;;;;;;6.56;nan;100135.06;4957367;28;20288;-83
2023/12/27 02:17:25;;;;;;;10.73;1.70;;;;;;;6.52;nan;100138.69;4955345;28;20295;-85
2023/12/27 02:19:54;;;;;;;2.90;1.42;;;;;;;6.52;nan;100137.84;4957511;28;20459;-84
2023/12/27 02:22:23;;;;;;;6.03;1.42;;;;;;;6.51;nan;100136.13;4957571;28;20228;-84
2023/12/27 02:24:56;;;;;;;2.75;1.75;;;;;;;6.48;nan;100141.47;4958574;28;20204;-87
2023/12/27 02:27:22;;;;;;;2.60;1.25;;;;;;;6.44;nan;100130.31;4961293;28;20189;-84
2023/12/27 02:29:47;;;;;;;1.80;1.70;;;;;;;6.42;nan;100132.13;4957985;28;20255;-85
2023/12/27 02:32:13;;;;;;;2.67;1.58;;;;;;;6.41;nan;100125.19;4956331;28;20235;-85
2023/12/27 02:34:39;;;;;;;5.47;2.00;;;;;;;6.35;nan;100121.06;4957775;28;20197;-84
2023/12/27 02:37:04;;;;;;;5.13;1.77;;;;;;;6.32;nan;100120.31;4960956;28;20231;-87
2023/12/27 02:39:30;;;;;;;2.03;1.70;;;;;;;6.28;nan;100116.97;4954799;28;20204;-84
2023/12/27 02:41:55;;;;;;;2.40;1.80;;;;;;;6.26;nan;100107.50;4959654;28;20696;-85
2023/12/27 02:44:20;;;;;;;6.13;2.40;;;;;;;6.24;nan;100112.81;4957915;28;20196;-85
2023/12/27 02:46:46;;;;;;;1.87;1.30;;;;;;;6.22;nan;100117.22;4958130;28;20214;-86
2023/12/27 02:49:11;;;;;;;2.83;2.00;;;;;;;6.16;nan;100107.88;4955449;28;20201;-84
2023/12/27 02:51:38;;;;;;;1.97;1.50;;;;;;;6.13;nan;100114.94;4957336;28;20743;-86
2023/12/27 02:54:03;;;;;;;1.60;1.50;;;;;;;6.10;nan;100099.41;4959560;28;20739;-87
2023/12/27 02:56:28;;;;;;;4.00;1.83;;;;;;;6.08;nan;100096.88;4958646;28;20287;-87
2023/12/27 02:58:54;;;;;;;2.33;1.70;;;;;;;6.07;nan;100094.31;4958217;28;20197;-84
2023/12/27 03:01:20;;;;;;;4.10;1.80;;;;;;;6.07;nan;100089.09;4954292;28;20456;-84
2023/12/27 03:03:45;;;;;;;2.17;1.57;;;;;;;6.06;nan;100087.41;4954167;28;20323;-86
2023/12/27 03:06:10;;;;;;;2.37;1.60;;;;;;;6.05;nan;100085.69;4951494;28;20200;-84
2023/12/27 03:08:37;;;;;;;2.33;1.53;;;;;;;6.04;nan;100094.44;4952575;28;20585;-84
2023/12/27 03:11:02;;;;;;;4.40;2.33;;;;;;;6.05;nan;100088.28;4951492;28;20208;-85
2023/12/27 03:13:28;;;;;;;2.77;1.50;;;;;;;6.02;nan;100085.81;4958725;28;20741;-88
2023/12/27 03:15:56;;;;;;;5.78;3.70;;;;;;;6.04;nan;100091.81;4959574;28;20535;-85
2023/12/27 03:18:23;;;;;;;5.03;3.60;;;;;;;6.04;nan;100099.66;4957777;28;20196;-88
2023/12/27 03:20:49;;;;;;;3.73;2.17;;;;;;;6.04;nan;100092.66;4963509;28;21084;-87
2023/12/27 03:23:20;;;;;;;3.70;1.27;;;;;;;6.04;nan;100079.63;4970001;28;20220;-85
2023/12/27 03:25:45;;;;;;;4.72;2.30;;;;;;;6.04;nan;100084.00;4963994;28;20204;-86
2023/12/27 03:28:12;;;;;;;3.13;1.83;;;;;;;6.02;nan;100091.03;4961267;28;20740;-84
2023/12/27 03:30:38;;;;;;;1.47;1.17;;;;;;;6.01;nan;100076.28;4965427;28;20203;-84
2023/12/27 03:33:06;;;;;;;5.00;1.80;;;;;;;5.97;nan;100079.03;4963842;28;20223;-87
2023/12/27 03:35:31;;;;;;;2.83;1.65;;;;;;;5.95;nan;100086.03;4964423;28;20196;-86
2023/12/27 03:37:57;;;;;;;4.20;1.93;;;;;;;5.94;nan;100079.13;4964546;28;20197;-86
2023/12/27 03:40:22;;;;;;;3.50;2.27;;;;;;;5.94;nan;100079.13;4964116;28;20200;-85
2023/12/27 03:42:50;;;;;;;3.40;1.70;;;;;;;5.93;nan;100076.53;4964223;28;20727;-87
2023/12/27 03:45:17;;;;;;;2.20;1.67;;;;;;;5.88;nan;100081.06;4967068;28;20209;-86
2023/12/27 03:47:44;;;;;;;2.47;2.00;;;;;;;5.77;nan;100069.28;4965501;28;20254;-86
2023/12/27 03:50:11;;;;;;;2.33;1.85;;;;;;;5.63;nan;100042.03;4964879;28;20200;-84
2023/12/27 03:52:36;;;;;;;6.18;2.90;;;;;;;5.55;nan;100047.50;4966532;28;20204;-84
2023/12/27 03:55:02;;;;;;;3.83;2.33;;;;;;;5.53;nan;100052.75;4964697;28;20192;-87
2023/12/27 03:57:27;;;;;;;2.70;2.07;;;;;;;5.53;nan;100055.38;4967164;28;20197;-87
2023/12/27 03:59:52;;;;;;;1.80;1.43;;;;;;;5.51;nan;100051.16;4968423;28;20216;-84
2023/12/27 04:02:18;;;;;;;4.97;2.73;;;;;;;5.48;nan;100044.28;4965455;28;20268;-84
2023/12/27 04:04:46;;;;;;;5.27;2.10;;;;;;;5.45;nan;100041.75;4967300;28;20220;-86
2023/12/27 04:07:12;;;;;;;4.47;1.75;;;;;;;5.39;nan;100036.78;4966885;28;20619;-84
2023/12/27 04:09:41;;;;;;;2.63;2.03;;;;;;;5.30;nan;100035.34;4969679;28;20654;-85
2023/12/27 04:12:07;;;;;;;2.65;2.08;;;;;;;5.25;nan;100026.00;4967848;28;20235;-86
2023/12/27 04:14:32;;;;;;;3.25;2.25;;;;;;;5.25;nan;100031.22;4966899;28;20739;-88
2023/12/27 04:16:58;;;;;;;3.40;2.10;;;;;;;5.29;nan;100024.97;4968364;28;20224;-85
2023/12/27 04:19:23;;;;;;;3.53;2.50;;;;;;;5.33;nan;100024.81;4968703;28;20295;-86
2023/12/27 04:21:51;;;;;;;2.13;1.90;;;;;;;5.38;nan;100036.84;4963413;28;20592;-87
2023/12/27 04:24:17;;;;;;;2.38;1.58;;;;;;;5.40;nan;100043.72;4964086;28;20259;-86
2023/12/27 04:26:42;;;;;;;5.90;2.00;;;;;;;5.39;nan;100055.03;4964769;28;20200;-85
2023/12/27 04:29:15;;;;;;;2.20;1.83;;;;;;;5.36;nan;100044.72;4954834;28;20228;-85
2023/12/27 04:31:41;;;;;;;4.07;2.22;;;;;;;5.35;nan;100037.81;4951865;28;20224;-84
2023/12/27 04:34:09;;;;;;;5.32;2.22;;;;;;;5.38;nan;100037.69;4949865;28;20196;-81
2023/12/27 04:36:45;;;;;;;2.08;1.50;;;;;;;5.39;nan;100036.78;4967784;28;20196;-82
2023/12/27 04:39:13;;;;;;;2.17;1.65;;;;;;;5.38;nan;100029.88;4952551;28;20235;-82
2023/12/27 04:41:39;;;;;;;3.85;2.15;;;;;;;5.39;nan;100039.38;4953469;28;20208;-82
2023/12/27 04:44:05;;;;;;;2.97;1.73;;;;;;;5.42;nan;100036.66;4953442;28;20311;-81
2023/12/27 04:46:31;;;;;;;2.63;2.10;;;;;;;5.42;nan;100044.50;4949365;28;20288;-81
2023/12/27 04:48:56;;;;;;;1.80;1.60;;;;;;;5.42;nan;100026.25;4952838;28;20739;-81
2023/12/27 04:51:25;;;;;;;3.30;2.00;;;;;;;5.45;nan;100030.50;4959323;28;20208;-82
2023/12/27 04:53:51;;;;;;;3.63;2.38;;;;;;;5.48;nan;100023.44;4952696;28;20200;-82
2023/12/27 04:56:20;;;;;;;3.83;1.80;;;;;;;5.52;nan;100035.44;4951610;28;20211;-82
2023/12/27 04:58:45;;;;;;;2.72;1.45;;;;;;;5.55;nan;100027.50;4954079;28;20215;-82
2023/12/27 05:01:11;;;;;;;2.33;2.13;;;;;;;5.60;nan;100035.16;4953456;28;20212;-82
2023/12/27 05:03:39;;;;;;;3.07;1.80;;;;;;;5.64;nan;100022.88;4954709;28;20220;-82
2023/12/27 05:06:08;;;;;;;4.22;2.10;;;;;;;5.64;nan;100028.09;4947510;28;20292;-83
2023/12/27 05:08:34;;;;;;;2.00;1.70;;;;;;;5.63;nan;100027.25;4950501;28;20625;-82
2023/12/27 05:10:59;;;;;;;2.58;2.33;;;;;;;5.63;nan;100022.03;4952843;28;20279;-82
2023/12/27 05:13:25;;;;;;;4.87;2.00;;;;;;;5.63;nan;100047.25;4943737;28;20200;-82
2023/12/27 05:15:53;;;;;;;2.87;2.07;;;;;;;5.61;nan;100043.84;4948085;28;20459;-82
2023/12/27 05:18:19;;;;;;;3.47;1.85;;;;;;;5.60;nan;100037.78;4943726;28;20814;-82
2023/12/27 05:20:44;;;;;;;3.00;1.70;;;;;;;5.58;nan;100041.34;4945009;28;20255;-82
2023/12/27 05:23:09;;;;;;;5.17;1.73;;;;;;;5.57;nan;100044.88;4943471;28;20836;-82
2023/12/27 05:25:35;;;;;;;3.50;1.70;;;;;;;5.55;nan;100040.53;4947932;28;20215;-81
2023/12/27 05:28:00;;;;;;;3.53;1.63;;;;;;;5.55;nan;100027.50;4950495;28;20200;-82
2023/12/27 05:30:26;;;;;;;3.20;1.67;;;;;;;5.55;nan;100029.28;4948673;28;20206;-83
2023/12/27 05:32:54;;;;;;;3.00;2.70;;;;;;;5.53;nan;100026.72;4951314;28;21411;-83
2023/12/27 05:35:20;;;;;;;2.60;2.00;;;;;;;5.53;nan;100020.66;4955713;28;20231;-82
2023/12/27 05:37:45;;;;;;;2.73;2.50;;;;;;;5.52;nan;100035.44;4953131;28;20659;-83
2023/12/27 05:40:11;;;;;;;4.93;2.77;;;;;;;5.51;nan;100031.16;4959409;28;20286;-82
2023/12/27 05:42:36;;;;;;;4.67;2.77;;;;;;;5.52;nan;100025.03;4957017;28;20213;-82
2023/12/27 05:45:02;;;;;;;4.17;2.57;;;;;;;5.50;nan;100016.41;4959544;28;20208;-82
2023/12/27 05:47:27;;;;;;;2.80;2.17;;;;;;;5.47;nan;100019.13;4946191;28;20231;-82
2023/12/27 05:49:53;;;;;;;2.60;2.40;;;;;;;5.45;nan;100020.09;4950652;28;20291;-82
2023/12/27 05:52:21;;;;;;;3.10;1.70;;;;;;;5.46;nan;100024.41;4947055;28;20196;-81
2023/12/27 05:54:46;;;;;;;3.50;3.20;;;;;;;5.47;nan;100021.72;4952482;28;20404;-83
2023/12/27 05:57:12;;;;;;;5.30;2.43;;;;;;;5.50;nan;100021.63;4932682;28;20256;-83
2023/12/27 05:59:37;;;;;;;3.17;2.77;;;;;;;5.50;nan;100019.00;4951896;28;20657;-84
2023/12/27 06:02:03;;;;;;;2.07;1.97;;;;;;;5.48;nan;100012.16;4951145;28;20208;-83
2023/12/27 06:04:28;;;;;;;3.00;1.90;;;;;;;5.43;nan;100009.72;4950286;28;20263;-83
2023/12/27 06:06:54;;;;;;;3.07;2.10;;;;;;;5.40;nan;100008.97;4929147;28;20212;-84
2023/12/27 06:09:20;;;;;;;3.13;2.10;;;;;;;5.36;nan;100016.06;4948775;28;20326;-83
2023/12/27 06:11:46;;;;;;;2.72;2.42;;;;;;;5.34;nan;100007.44;4946531;28;20255;-83
2023/12/27 06:14:15;;;;;;;3.78;3.28;;;;;;;5.33;nan;100003.16;4947623;28;20204;-83
2023/12/27 06:16:40;;;;;;;2.63;1.95;;;;;;;5.32;nan;100007.50;4948936;28;20207;-84
2023/12/27 06:19:05;;;;;;;3.07;2.70;;;;;;;5.31;nan;100011.00;4930615;28;20188;-80
2023/12/27 06:21:31;;;;;;;2.40;2.20;;;;;;;5.31;nan;100015.38;4950129;28;20768;-82
2023/12/27 06:23:56;;;;;;;3.30;2.10;;;;;;;5.32;nan;100024.91;4952667;28;20212;-82
2023/12/27 06:26:22;;;;;;;5.13;2.97;;;;;;;5.33;nan;100022.22;4949603;28;20196;-82
2023/12/27 06:28:48;;;;;;;6.70;2.20;;;;;;;5.35;nan;100016.97;4948853;28;20200;-81
2023/12/27 06:31:13;;;;;;;3.70;2.60;;;;;;;5.37;nan;100009.94;4949853;28;20267;-82
2023/12/27 06:33:39;;;;;;;3.50;3.20;;;;;;;5.33;nan;100006.59;4950283;28;20483;-82
2023/12/27 06:36:06;;;;;;;8.70;4.00;;;;;;;5.31;nan;100005.78;4953480;28;20246;-80
2023/12/27 06:38:31;;;;;;;5.80;2.92;;;;;;;5.34;nan;100010.03;4951452;28;20211;-81
2023/12/27 06:40:57;;;;;;;6.27;4.30;;;;;;;5.34;nan;100010.03;4951905;28;20212;-81
2023/12/27 06:43:23;;;;;;;4.32;3.88;;;;;;;5.34;nan;99999.63;4949974;28;20208;-80
2023/12/27 06:45:49;;;;;;;7.20;4.27;;;;;;;5.31;nan;100002.34;4950725;28;20223;-80
2023/12/27 06:48:14;;;;;;;6.10;4.35;;;;;;;5.30;nan;100000.66;4956665;28;21377;-82
2023/12/27 06:50:41;;;;;;;6.50;4.50;;;;;;;5.30;nan;100005.88;4956953;28;20197;-82
2023/12/27 06:53:07;;;;;;;6.70;5.80;;;;;;;5.31;nan;100002.34;4958335;28;20220;-80
2023/12/27 06:55:32;;;;;;;4.60;3.73;;;;;;;5.31;nan;100003.19;4958321;28;20228;-81
2023/12/27 06:57:59;;;;;;;4.10;3.57;;;;;;;5.29;nan;100020.66;4957075;28;20203;-82
2023/12/27 07:00:24;;;;;;;9.45;5.35;;;;;;;5.28;nan;100023.28;4952035;28;20244;-80
2023/12/27 07:02:50;;;;;;;10.03;6.63;;;;;;;5.28;nan;100026.75;4951007;28;20360;-80
2023/12/27 07:05:16;;;;;;;12.90;7.40;;;;;;;5.28;nan;100028.50;4936875;28;20204;-79
2023/12/27 07:07:41;;;;;;;6.80;5.20;;;;;;;5.26;nan;100015.53;4952377;28;20254;-81
2023/12/27 07:10:08;;;;;;;5.43;4.10;;;;;;;5.24;nan;100019.97;4952034;28;20197;-79
2023/12/27 07:12:33;;;;;;;6.60;3.58;;;;;;;5.23;nan;100020.84;4951385;28;20680;-79
2023/12/27 07:14:59;;;;;;;5.67;4.07;;;;;;;5.22;nan;100016.56;4952250;28;20227;-80
2023/12/27 07:17:24;;;;;;;3.90;3.50;;;;;;;5.20;nan;100017.50;4952945;28;20249;-80
2023/12/27 07:19:50;;;;;;;9.50;4.37;;;;;;;5.21;nan;100013.97;4956574;28;20392;-80
2023/12/27 07:22:16;;;;;;;11.17;4.40;;;;;;;5.18;nan;100012.34;4952199;28;20232;-80
2023/12/27 07:24:41;;;;;;;9.00;6.13;;;;;;;5.18;nan;100008.88;4955521;28;20219;-82
2023/12/27 07:27:08;;;;;;;7.73;5.70;;;;;;;5.20;nan;100015.75;4957228;28;20215;-83
2023/12/27 07:29:36;;;;;;;11.68;5.78;;;;;;;5.26;nan;100038.13;4955557;28;20209;-83
2023/12/27 07:32:03;;;;;;;12.30;5.97;;;;;;;5.29;nan;100038.00;4941115;28;20331;-83
2023/12/27 07:34:29;;;;;;;8.43;5.20;;;;;;;5.31;nan;100041.41;4954437;28;20223;-84
2023/12/27 07:36:54;;;;;;;13.73;6.00;;;;;;;5.34;nan;100033.50;4953720;28;21254;-83
2023/12/27 07:39:20;;;;;;;5.47;4.97;;;;;;;5.35;nan;100032.59;4956153;28;20463;-83
2023/12/27 07:41:45;;;;;;;9.77;5.60;;;;;;;5.37;nan;100043.78;4957000;28;20227;-83
2023/12/27 07:44:11;;;;;;;5.77;5.07;;;;;;;5.36;nan;100042.09;4955679;28;20219;-83
2023/12/27 07:46:36;;;;;;;8.13;5.47;;;;;;;5.37;nan;100046.41;4954383;28;20259;-83
2023/12/27 07:49:02;;;;;;;15.53;5.30;;;;;;;5.34;nan;100041.31;4956034;28;20216;-83
2023/12/27 07:51:27;;;;;;;10.05;5.82;;;;;;;5.35;nan;100047.34;4956103;28;20212;-83
2023/12/27 07:53:53;;;;;;;8.17;5.13;;;;;;;5.34;nan;100051.72;4955372;28;20200;-83
2023/12/27 07:56:18;;;;;;;12.67;4.60;;;;;;;5.34;nan;100030.88;4951240;28;20213;-83
2023/12/27 07:58:45;;;;;;;7.90;4.90;;;;;;;5.32;nan;100017.94;4953067;28;20204;-83
2023/12/27 08:01:11;;;;;;;6.35;5.13;;;;;;;5.31;nan;100017.97;4954557;28;20669;-83
2023/12/27 08:03:37;;;;;;;11.20;4.60;;;;;;;5.29;nan;100022.38;4953005;28;20208;-83
2023/12/27 08:06:02;;;;;;;10.98;5.25;;;;;;;5.29;nan;100015.44;4956000;28;20212;-83
2023/12/27 08:08:28;;;;;;;5.73;4.00;;;;;;;5.28;nan;100010.28;4955819;28;20200;-83
2023/12/27 08:10:53;;;;;;;9.23;4.17;;;;;;;5.28;nan;100005.06;4954669;28;20475;-83
2023/12/27 08:13:18;;;;;;;6.27;3.87;;;;;;;5.25;nan;100000.81;4957769;28;20200;-83
2023/12/27 08:15:47;;;;;;;4.10;3.70;;;;;;;5.22;nan;99989.66;4957894;28;20400;-83
2023/12/27 08:18:12;;;;;;;13.38;4.45;;;;;;;5.20;nan;100007.09;4959315;28;20292;-82
2023/12/27 08:20:38;;;;;;;4.43;3.50;;;;;;;5.22;nan;100006.13;4956984;28;20279;-83
2023/12/27 08:23:03;;;;;;;6.67;4.67;;;;;;;5.26;nan;100015.53;4959950;28;20871;-79
2023/12/27 08:25:29;;;;;;;5.17;4.67;;;;;;;5.31;nan;100015.38;4959598;28;20835;-81
2023/12/27 08:27:54;;;;;;;5.37;4.60;;;;;;;5.37;nan;100015.13;4960629;28;20207;-81
2023/12/27 08:30:20;;;;;;;9.00;5.47;;;;;;;5.44;nan;100011.41;4959635;28;20231;-81
2023/12/27 08:32:46;;;;;;;7.97;3.53;;;;;;;5.49;nan;100012.09;4969930;28;20228;-81
2023/12/27 08:35:11;;;;;;;6.77;4.17;;;;;;;5.51;nan;100007.69;4981827;28;20277;-80
2023/12/27 08:37:37;;;;;;;10.33;6.23;;;;;;;5.53;nan;100008.47;4984706;28;20212;-81
2023/12/27 08:40:02;;;;;;;8.20;6.97;;;;;;;5.57;nan;100005.78;4982514;28;20244;-81
2023/12/27 08:42:28;;;;;;;11.90;5.70;;;;;;;5.59;nan;100009.16;4977348;28;20219;-81
2023/12/27 08:44:53;;;;;;;9.13;6.07;;;;;;;5.63;nan;100010.75;4970250;28;20204;-81
2023/12/27 08:47:18;;;;;;;10.30;6.80;;;;;;;5.66;nan;100005.44;4975664;28;20283;-81
2023/12/27 08:49:44;;;;;;;13.10;7.07;;;;;;;5.74;nan;100003.38;4969428;28;20402;-81
2023/12/27 08:52:09;;;;;;;9.47;6.33;;;;;;;5.82;nan;99985.69;4963725;28;20211;-81
2023/12/27 08:54:35;;;;;;;8.23;5.77;;;;;;;5.92;nan;99987.06;4966442;28;20208;-81
2023/12/27 08:57:01;;;;;;;14.50;6.50;;;;;;;6.12;nan;99975.03;4968547;28;20213;-79
2023/12/27 08:59:26;;;;;;;10.40;5.70;;;;;;;6.40;nan;99975.63;4968034;28;20705;-81
2023/12/27 09:01:52;;;;;;;9.53;6.40;;;;;;;6.57;nan;99974.94;4966307;28;20204;-81
2023/12/27 09:04:19;;;;;;;11.10;6.30;;;;;;;6.73;nan;99974.31;4971755;28;20717;-81
2023/12/27 09:06:44;;;;;;;9.98;7.25;;;;;;;7.17;nan;99982.84;4966281;28;20465;-81
2023/12/27 09:09:11;;;;;;;11.93;8.60;;;;;;;7.77;nan;99980.16;4963652;28;20943;-81
2023/12/27 09:11:36;;;;;;;10.38;7.60;;;;;;;8.47;nan;99972.53;4970602;28;20211;-81
2023/12/27 09:14:02;;;;;;;8.63;4.73;;;;;;;8.90;nan;99967.75;4964905;28;20301;-81
2023/12/27 09:16:27;;;;;;;6.67;5.00;;;;;;;9.07;nan;99963.34;4965115;28;20204;-80
2023/12/27 09:18:53;;;;;;;7.77;5.70;;;;;;;9.09;nan;99968.50;4974975;28;20199;-80
2023/12/27 09:21:19;;;;;;;10.47;4.43;;;;;;;9.02;nan;99967.16;4966330;28;20720;-80
2023/12/27 09:23:44;;;;;;;12.60;5.00;;;;;;;8.84;nan;99963.69;4964991;28;20586;-78
2023/12/27 09:26:13;;;;;;;9.50;5.80;;;;;;;8.63;nan;99955.97;4972012;28;20214;-80
2023/12/27 09:28:38;;;;;;;5.97;4.53;;;;;;;8.52;nan;99970.53;4963375;28;20193;-79
2023/12/27 09:31:04;;;;;;;6.10;5.50;;;;;;;8.59;nan;99966.69;4960070;28;20211;-80
2023/12/27 09:33:29;;;;;;;5.87;4.83;;;;;;;8.61;nan;99960.47;4988892;28;20683;-80
2023/12/27 09:35:55;;;;;;;5.23;4.73;;;;;;;8.46;nan;99958.59;4990087;28;20191;-80
2023/12/27 09:38:21;;;;;;;8.60;4.05;;;;;;;8.44;nan;99952.56;4987605;28;20249;-80
2023/12/27 09:40:47;;;;;;;6.00;4.13;;;;;;;8.68;nan;99954.91;4987026;28;20200;-80
2023/12/27 09:43:13;;;;;;;6.40;4.60;;;;;;;8.90;nan;99963.38;4983791;28;20231;-80
2023/12/27 09:45:41;;;;;;;5.03;4.15;;;;;;;8.98;nan;99955.13;4987972;28;20483;-79
2023/12/27 09:48:12;;;;;;;4.35;3.70;;;;;;;8.90;nan;99960.75;4989315;28;20596;-80
2023/12/27 09:50:40;;;;;;;6.28;3.55;;;;;;;8.94;nan;99967.53;4986869;28;20306;-80
2023/12/27 09:53:09;;;;;;;4.20;3.08;;;;;;;9.24;nan;99953.78;4987749;28;20219;-80
2023/12/27 09:55:34;;;;;;;3.55;3.20;;;;;;;10.17;nan;99961.78;4982766;28;20215;-80
2023/12/27 09:58:00;;;;;;;3.50;3.20;;;;;;;11.36;nan;99934.69;4985544;28;20212;-81
2023/12/27 10:00:28;;;;;;;7.17;3.90;;;;;;;12.49;nan;99931.03;4990303;28;20673;-80
2023/12/27 10:02:58;;;;;;;5.65;4.40;;;;;;;13.55;nan;99923.78;4990968;28;20245;-81
2023/12/27 10:05:31;;;;;;;8.30;4.72;;;;;;;14.42;nan;99921.88;4993357;28;20202;-80
2023/12/27 10:07:56;;;;;;;11.40;5.32;;;;;;;14.91;nan;99912.94;4994348;28;20743;-80
2023/12/27 10:10:22;;;;;;;8.17;5.10;;;;;;;15.26;nan;99892.50;4987269;28;20299;-79
2023/12/27 10:12:49;;;;;;;6.03;5.00;;;;;;;15.65;nan;99905.34;4985891;28;20222;-80
2023/12/27 10:15:15;;;;;;;5.22;3.80;;;;;;;15.58;nan;99907.66;4987728;28;20648;-81
2023/12/27 10:17:41;;;;;;;9.05;5.30;;;;;;;15.16;nan;99903.94;4971441;28;20207;-80
2023/12/27 10:20:08;;;;;;;4.75;4.10;;;;;;;14.66;nan;99904.19;4992347;28;20203;-79
2023/12/27 10:22:33;;;;;;;7.32;4.40;;;;;;;14.22;nan;99910.16;4988881;28;20216;-80
2023/12/27 10:24:59;;;;;;;5.77;4.73;;;;;;;13.85;nan;99900.50;4992764;28;20207;-80
2023/12/27 10:27:28;;;;;;;4.60;3.83;;;;;;;13.40;nan;99886.16;4986809;28;20537;-80
2023/12/27 10:29:53;;;;;;;6.85;4.90;;;;;;;12.86;nan;99887.22;4990056;28;20702;-80
2023/12/27 10:32:19;;;;;;;6.10;4.70;;;;;;;12.26;nan;99869.31;4980786;28;20235;-80
2023/12/27 10:34:45;;;;;;;5.87;3.10;;;;;;;11.73;nan;99872.69;4970509;28;20206;-79
2023/12/27 10:37:12;;;;;;;7.35;3.95;;;;;;;11.11;nan;99867.00;4963441;28;20204;-79
2023/12/27 10:39:44;;;;;;;7.85;3.13;;;;;;;10.73;nan;99867.53;4964637;28;20205;-81
2023/12/27 10:42:12;;;;;;;5.15;3.92;;;;;;;10.44;nan;99864.00;4969784;28;20195;-80
2023/12/27 10:44:37;;;;;;;4.90;3.92;;;;;;;10.21;nan;99862.72;4967887;28;20196;-81
2023/12/27 10:47:08;;;;;;;6.50;3.60;;;;;;;10.06;nan;99856.56;4971581;28;20206;-80
2023/12/27 10:49:35;;;;;;;5.05;4.18;;;;;;;9.91;nan;99842.56;4968325;28;20215;-80
2023/12/27 10:52:02;;;;;;;4.18;3.47;;;;;;;9.82;nan;99848.31;4967124;28;20229;-81
2023/12/27 10:54:28;;;;;;;8.20;3.47;;;;;;;9.74;nan;99855.75;4963349;28;20286;-79
2023/12/27 10:56:56;;;;;;;7.47;3.90;;;;;;;9.62;nan;99833.69;4967864;28;20722;-79
2023/12/27 10:59:22;;;;;;;4.60;3.35;;;;;;;9.57;nan;99832.25;4966845;28;20729;-80
2023/12/27 11:01:49;;;;;;;5.30;4.40;;;;;;;9.50;nan;99824.75;4972159;28;20635;-81
2023/12/27 11:04:20;;;;;;;11.50;4.50;;;;;;;9.50;nan;99819.50;4967569;28;20250;-79
2023/12/27 11:06:48;;;;;;;7.45;4.22;;;;;;;9.53;nan;99811.47;4970857;28;20815;-79
2023/12/27 11:09:14;;;;;;;4.28;3.63;;;;;;;9.57;nan;99806.88;4962997;28;20200;-80
2023/12/27 11:11:40;;;;;;;4.20;2.97;;;;;;;9.58;nan;99805.09;4967531;28;20213;-80
2023/12/27 11:14:08;;;;;;;4.10;3.60;;;;;;;9.58;nan;99802.47;4970508;28;20473;-79
2023/12/27 11:16:35;;;;;;;4.30;3.58;;;;;;;9.55;nan;99813.97;4968592;28;20557;-80
2023/12/27 11:19:08;;;;;;;5.30;3.92;;;;;;;9.60;nan;99793.59;4970893;28;20208;-79
2023/12/27 11:21:37;;;;;;;5.18;4.40;;;;;;;9.69;nan;99790.47;4967078;28;20299;-81
2023/12/27 11:24:04;;;;;;;6.78;4.82;;;;;;;9.78;nan;99783.84;4964299;28;20219;-79
2023/12/27 11:26:34;;;;;;;7.95;5.05;;;;;;;9.85;nan;99789.56;4965114;28;20200;-81
2023/12/27 11:29:01;;;;;;;9.38;4.70;;;;;;;9.90;nan;99770.00;4964833;28;20253;-81
2023/12/27 11:31:28;;;;;;;8.90;5.55;;;;;;;9.95;nan;99774.97;4969896;28;20865;-80
2023/12/27 11:33:53;;;;;;;8.38;5.60;;;;;;;9.98;nan;99770.38;4973979;28;20196;-81
2023/12/27 11:36:20;;;;;;;7.33;5.30;;;;;;;10.01;nan;99765.91;4969914;28;20215;-81
2023/12/27 11:38:46;;;;;;;8.20;5.53;;;;;;;10.03;nan;99751.75;4971671;28;23691;-81
2023/12/27 11:41:12;;;;;;;12.02;5.85;;;;;;;10.13;nan;99749.44;4972772;28;20308;-81
2023/12/27 11:44:03;;;;;;;4.23;3.83;;;;;;;10.23;nan;99753.19;4987009;28;20232;-81
2023/12/27 11:46:30;;;;;;;9.90;4.55;;;;;;;10.27;nan;99752.13;4977863;28;20545;-81